sensor_id;sensor_type;location;lat;lon;timestamp;temperature;humidity
10175;DHT22;18221;38.704;0.152;2023-09-19T00:11:23;22.60;99.90
10175;DHT22;18221;38.704;0.152;2023-09-19T00:13:52;22.60;99.90
10175;DHT22;18221;38.704;0.152;2023-09-19T00:16:21;22.60;99.90
10175;DHT22;18221;38.704;0.152;2023-09-19T00:18:49;22.60;99.90
10175;DHT22;18221;38.704;0.152;2023-09-19T00:21:17;22.60;99.90
10175;DHT22;18221;38.704;0.152;2023-09-19T00:23:45;22.60;99.90
10175;DHT22;18221;38.704;0.152;2023-09-19T00:26:13;22.60;99.90
10175;DHT22;18221;38.704;0.152;2023-09-19T00:28:42;22.60;99.90
10175;DHT22;18221;38.704;0.152;2023-09-19T00:31:10;22.60;99.90
10175;DHT22;18221;38.704;0.152;2023-09-19T00:33:39;22.60;99.90
10175;DHT22;18221;38.704;0.152;2023-09-19T00:36:07;22.50;99.90
10175;DHT22;18221;38.704;0.152;2023-09-19T00:38:35;22.50;99.90
10175;DHT22;18221;38.704;0.152;2023-09-19T00:41:03;22.60;99.90
10175;DHT22;18221;38.704;0.152;2023-09-19T00:43:31;22.60;99.90
10175;DHT22;18221;38.704;0.152;2023-09-19T00:46:01;22.50;99.90
10175;DHT22;18221;38.704;0.152;2023-09-19T00:48:32;22.60;99.90
10175;DHT22;18221;38.704;0.152;2023-09-19T00:51:10;22.60;99.90
10175;DHT22;18221;38.704;0.152;2023-09-19T00:53:39;22.50;99.90
10175;DHT22;18221;38.704;0.152;2023-09-19T00:56:12;22.50;99.90
10175;DHT22;18221;38.704;0.152;2023-09-19T00:58:41;22.50;99.90
10175;DHT22;18221;38.704;0.152;2023-09-19T01:01:10;22.50;99.90
10175;DHT22;18221;38.704;0.152;2023-09-19T01:03:40;22.50;99.90
10175;DHT22;18221;38.704;0.152;2023-09-19T01:06:09;22.50;99.90
10175;DHT22;18221;38.704;0.152;2023-09-19T01:08:36;22.50;99.90
10175;DHT22;18221;38.704;0.152;2023-09-19T01:11:11;22.50;99.90
10175;DHT22;18221;38.704;0.152;2023-09-19T01:13:52;22.40;99.90
10175;DHT22;18221;38.704;0.152;2023-09-19T01:16:40;22.40;99.90
10175;DHT22;18221;38.704;0.152;2023-09-19T01:22:53;22.40;99.90
10175;DHT22;18221;38.704;0.152;2023-09-19T01:28:54;22.30;99.90
10175;DHT22;18221;38.704;0.152;2023-09-19T01:31:47;22.30;99.90
10175;DHT22;18221;38.704;0.152;2023-09-19T01:34:20;22.30;99.90
10175;DHT22;18221;38.704;0.152;2023-09-19T01:36:48;22.40;99.90
10175;DHT22;18221;38.704;0.152;2023-09-19T01:39:16;22.40;99.90
10175;DHT22;18221;38.704;0.152;2023-09-19T01:41:56;22.50;99.90
10175;DHT22;18221;38.704;0.152;2023-09-19T01:44:39;22.50;99.90
10175;DHT22;18221;38.704;0.152;2023-09-19T01:47:23;22.50;99.90
10175;DHT22;18221;38.704;0.152;2023-09-19T01:49:58;22.50;99.90
10175;DHT22;18221;38.704;0.152;2023-09-19T01:52:38;22.60;99.90
10175;DHT22;18221;38.704;0.152;2023-09-19T01:55:14;22.60;99.90
10175;DHT22;18221;38.704;0.152;2023-09-19T01:57:51;22.60;99.90
10175;DHT22;18221;38.704;0.152;2023-09-19T02:00:28;22.70;99.90
10175;DHT22;18221;38.704;0.152;2023-09-19T02:03:02;22.70;99.90
10175;DHT22;18221;38.704;0.152;2023-09-19T02:05:31;22.70;99.90
10175;DHT22;18221;38.704;0.152;2023-09-19T02:07:59;22.50;99.90
10175;DHT22;18221;38.704;0.152;2023-09-19T02:10:27;22.70;99.90
10175;DHT22;18221;38.704;0.152;2023-09-19T02:12:55;22.70;99.90
10175;DHT22;18221;38.704;0.152;2023-09-19T02:15:25;22.60;99.90
10175;DHT22;18221;38.704;0.152;2023-09-19T02:17:53;22.60;99.90
10175;DHT22;18221;38.704;0.152;2023-09-19T02:20:24;22.60;99.90
10175;DHT22;18221;38.704;0.152;2023-09-19T02:22:52;22.60;99.90
10175;DHT22;18221;38.704;0.152;2023-09-19T02:25:20;22.60;99.90
10175;DHT22;18221;38.704;0.152;2023-09-19T02:27:48;22.60;99.90
10175;DHT22;18221;38.704;0.152;2023-09-19T02:30:17;22.60;99.90
10175;DHT22;18221;38.704;0.152;2023-09-19T02:32:46;22.60;99.90
10175;DHT22;18221;38.704;0.152;2023-09-19T02:35:15;22.60;99.90
10175;DHT22;18221;38.704;0.152;2023-09-19T02:37:47;22.60;99.90
10175;DHT22;18221;38.704;0.152;2023-09-19T02:40:15;22.60;99.90
10175;DHT22;18221;38.704;0.152;2023-09-19T02:42:47;22.50;99.90
10175;DHT22;18221;38.704;0.152;2023-09-19T02:45:16;22.60;99.90
10175;DHT22;18221;38.704;0.152;2023-09-19T02:47:45;22.50;99.90
10175;DHT22;18221;38.704;0.152;2023-09-19T02:50:14;22.50;99.90
10175;DHT22;18221;38.704;0.152;2023-09-19T02:52:44;22.50;99.90
10175;DHT22;18221;38.704;0.152;2023-09-19T02:55:15;22.50;99.90
10175;DHT22;18221;38.704;0.152;2023-09-19T02:57:49;22.50;99.90
10175;DHT22;18221;38.704;0.152;2023-09-19T03:00:19;22.50;99.90
10175;DHT22;18221;38.704;0.152;2023-09-19T03:02:48;22.50;99.90
10175;DHT22;18221;38.704;0.152;2023-09-19T03:05:16;22.50;99.90
10175;DHT22;18221;38.704;0.152;2023-09-19T03:07:47;22.50;99.90
10175;DHT22;18221;38.704;0.152;2023-09-19T03:10:16;22.40;99.90
10175;DHT22;18221;38.704;0.152;2023-09-19T03:12:45;22.40;99.90
10175;DHT22;18221;38.704;0.152;2023-09-19T03:15:14;22.40;99.90
10175;DHT22;18221;38.704;0.152;2023-09-19T03:17:43;22.30;99.90
10175;DHT22;18221;38.704;0.152;2023-09-19T03:20:12;22.40;99.90
10175;DHT22;18221;38.704;0.152;2023-09-19T03:22:43;22.30;99.90
10175;DHT22;18221;38.704;0.152;2023-09-19T03:25:13;22.40;99.90
10175;DHT22;18221;38.704;0.152;2023-09-19T03:27:41;22.40;99.90
10175;DHT22;18221;38.704;0.152;2023-09-19T03:30:10;22.30;99.90
10175;DHT22;18221;38.704;0.152;2023-09-19T03:32:44;22.30;99.90
10175;DHT22;18221;38.704;0.152;2023-09-19T03:35:15;22.30;99.90
10175;DHT22;18221;38.704;0.152;2023-09-19T03:37:44;22.30;99.90
10175;DHT22;18221;38.704;0.152;2023-09-19T03:40:13;22.30;99.90
10175;DHT22;18221;38.704;0.152;2023-09-19T03:42:46;22.30;99.90
10175;DHT22;18221;38.704;0.152;2023-09-19T03:45:14;22.30;99.90
10175;DHT22;18221;38.704;0.152;2023-09-19T03:47:42;22.30;99.90
10175;DHT22;18221;38.704;0.152;2023-09-19T03:50:13;22.20;99.90
10175;DHT22;18221;38.704;0.152;2023-09-19T03:52:43;22.20;99.90
10175;DHT22;18221;38.704;0.152;2023-09-19T03:55:12;22.20;99.90
10175;DHT22;18221;38.704;0.152;2023-09-19T03:57:40;22.20;99.90
10175;DHT22;18221;38.704;0.152;2023-09-19T04:00:09;22.20;99.90
10175;DHT22;18221;38.704;0.152;2023-09-19T04:02:40;22.20;99.90
10175;DHT22;18221;38.704;0.152;2023-09-19T04:05:08;22.20;99.90
10175;DHT22;18221;38.704;0.152;2023-09-19T04:07:37;22.20;99.90
10175;DHT22;18221;38.704;0.152;2023-09-19T04:10:05;22.20;99.90
10175;DHT22;18221;38.704;0.152;2023-09-19T04:12:36;22.20;99.90
10175;DHT22;18221;38.704;0.152;2023-09-19T04:15:05;22.20;99.90
10175;DHT22;18221;38.704;0.152;2023-09-19T04:17:34;22.20;99.90
10175;DHT22;18221;38.704;0.152;2023-09-19T04:20:02;22.20;99.90
10175;DHT22;18221;38.704;0.152;2023-09-19T04:22:33;22.20;99.90
10175;DHT22;18221;38.704;0.152;2023-09-19T04:25:03;22.30;99.90
10175;DHT22;18221;38.704;0.152;2023-09-19T04:27:32;22.30;99.90
10175;DHT22;18221;38.704;0.152;2023-09-19T04:30:02;22.30;99.90
10175;DHT22;18221;38.704;0.152;2023-09-19T04:32:36;22.30;99.90
10175;DHT22;18221;38.704;0.152;2023-09-19T04:35:06;22.30;99.90
10175;DHT22;18221;38.704;0.152;2023-09-19T04:37:37;22.30;99.90
10175;DHT22;18221;38.704;0.152;2023-09-19T04:40:08;22.30;99.90
10175;DHT22;18221;38.704;0.152;2023-09-19T04:42:43;22.30;99.90
10175;DHT22;18221;38.704;0.152;2023-09-19T04:45:14;22.20;99.90
10175;DHT22;18221;38.704;0.152;2023-09-19T04:47:42;22.20;99.90
10175;DHT22;18221;38.704;0.152;2023-09-19T04:50:10;22.20;99.90
10175;DHT22;18221;38.704;0.152;2023-09-19T04:52:40;22.20;99.90
10175;DHT22;18221;38.704;0.152;2023-09-19T04:55:10;22.30;99.90
10175;DHT22;18221;38.704;0.152;2023-09-19T04:57:39;22.20;99.90
10175;DHT22;18221;38.704;0.152;2023-09-19T05:00:08;22.30;99.90
10175;DHT22;18221;38.704;0.152;2023-09-19T05:02:40;22.30;99.90
10175;DHT22;18221;38.704;0.152;2023-09-19T05:05:09;22.30;99.90
10175;DHT22;18221;38.704;0.152;2023-09-19T05:07:40;22.30;99.90
10175;DHT22;18221;38.704;0.152;2023-09-19T05:10:11;22.30;99.90
10175;DHT22;18221;38.704;0.152;2023-09-19T05:12:39;22.30;99.90
10175;DHT22;18221;38.704;0.152;2023-09-19T05:15:13;22.30;99.90
10175;DHT22;18221;38.704;0.152;2023-09-19T05:17:48;22.30;99.90
10175;DHT22;18221;38.704;0.152;2023-09-19T05:20:17;22.20;99.90
10175;DHT22;18221;38.704;0.152;2023-09-19T05:22:57;22.30;99.90
10175;DHT22;18221;38.704;0.152;2023-09-19T05:25:27;22.30;99.90
10175;DHT22;18221;38.704;0.152;2023-09-19T05:27:57;22.20;99.90
10175;DHT22;18221;38.704;0.152;2023-09-19T05:30:26;22.20;99.90
10175;DHT22;18221;38.704;0.152;2023-09-19T05:32:56;22.20;99.90
10175;DHT22;18221;38.704;0.152;2023-09-19T05:35:24;22.20;99.90
10175;DHT22;18221;38.704;0.152;2023-09-19T05:37:54;22.20;99.90
10175;DHT22;18221;38.704;0.152;2023-09-19T05:40:22;22.20;99.90
10175;DHT22;18221;38.704;0.152;2023-09-19T05:42:50;22.30;99.90
10175;DHT22;18221;38.704;0.152;2023-09-19T05:45:19;22.20;99.90
10175;DHT22;18221;38.704;0.152;2023-09-19T05:47:49;22.20;99.90
10175;DHT22;18221;38.704;0.152;2023-09-19T05:50:18;22.20;99.90
10175;DHT22;18221;38.704;0.152;2023-09-19T05:52:53;22.20;99.90
10175;DHT22;18221;38.704;0.152;2023-09-19T05:55:22;22.10;99.90
10175;DHT22;18221;38.704;0.152;2023-09-19T05:57:51;22.10;99.90
10175;DHT22;18221;38.704;0.152;2023-09-19T06:00:20;22.10;99.90
10175;DHT22;18221;38.704;0.152;2023-09-19T06:02:52;22.10;99.90
10175;DHT22;18221;38.704;0.152;2023-09-19T06:05:22;22.00;99.90
10175;DHT22;18221;38.704;0.152;2023-09-19T06:07:53;22.00;99.90
10175;DHT22;18221;38.704;0.152;2023-09-19T06:10:21;21.90;99.90
10175;DHT22;18221;38.704;0.152;2023-09-19T06:12:49;22.00;99.90
10175;DHT22;18221;38.704;0.152;2023-09-19T06:15:17;22.00;99.90
10175;DHT22;18221;38.704;0.152;2023-09-19T06:17:47;22.00;99.90
10175;DHT22;18221;38.704;0.152;2023-09-19T06:20:16;22.00;99.90
10175;DHT22;18221;38.704;0.152;2023-09-19T06:22:47;22.00;99.90
10175;DHT22;18221;38.704;0.152;2023-09-19T06:25:16;22.00;99.90
10175;DHT22;18221;38.704;0.152;2023-09-19T06:27:46;22.00;99.90
10175;DHT22;18221;38.704;0.152;2023-09-19T06:30:15;22.00;99.90
10175;DHT22;18221;38.704;0.152;2023-09-19T06:32:43;22.00;99.90
10175;DHT22;18221;38.704;0.152;2023-09-19T06:35:12;22.00;99.90
10175;DHT22;18221;38.704;0.152;2023-09-19T06:37:42;22.00;99.90
10175;DHT22;18221;38.704;0.152;2023-09-19T06:40:13;22.00;99.90
10175;DHT22;18221;38.704;0.152;2023-09-19T06:42:43;22.10;99.90
10175;DHT22;18221;38.704;0.152;2023-09-19T06:45:12;22.10;99.90
10175;DHT22;18221;38.704;0.152;2023-09-19T06:47:44;22.20;99.90
10175;DHT22;18221;38.704;0.152;2023-09-19T06:50:15;22.20;99.90
10175;DHT22;18221;38.704;0.152;2023-09-19T06:52:45;22.30;99.90
10175;DHT22;18221;38.704;0.152;2023-09-19T06:55:17;22.30;99.90
10175;DHT22;18221;38.704;0.152;2023-09-19T06:57:46;22.40;99.90
10175;DHT22;18221;38.704;0.152;2023-09-19T07:00:15;22.40;99.90
10175;DHT22;18221;38.704;0.152;2023-09-19T07:02:44;22.50;99.90
10175;DHT22;18221;38.704;0.152;2023-09-19T07:05:12;22.50;99.90
10175;DHT22;18221;38.704;0.152;2023-09-19T07:07:40;22.50;99.90
10175;DHT22;18221;38.704;0.152;2023-09-19T07:10:10;22.60;99.90
10175;DHT22;18221;38.704;0.152;2023-09-19T07:12:40;22.60;99.90
10175;DHT22;18221;38.704;0.152;2023-09-19T07:15:09;22.60;99.90
10175;DHT22;18221;38.704;0.152;2023-09-19T07:17:37;22.60;99.90
10175;DHT22;18221;38.704;0.152;2023-09-19T07:20:06;22.50;99.90
10175;DHT22;18221;38.704;0.152;2023-09-19T07:22:34;22.60;99.90
10175;DHT22;18221;38.704;0.152;2023-09-19T07:25:05;22.50;99.90
10175;DHT22;18221;38.704;0.152;2023-09-19T07:27:34;22.50;99.90
10175;DHT22;18221;38.704;0.152;2023-09-19T07:30:04;22.60;99.90
10175;DHT22;18221;38.704;0.152;2023-09-19T07:32:34;22.50;99.90
10175;DHT22;18221;38.704;0.152;2023-09-19T07:35:02;22.60;99.90
10175;DHT22;18221;38.704;0.152;2023-09-19T07:37:31;22.60;99.90
10175;DHT22;18221;38.704;0.152;2023-09-19T07:40:00;22.60;99.90
10175;DHT22;18221;38.704;0.152;2023-09-19T07:42:29;22.50;99.90
10175;DHT22;18221;38.704;0.152;2023-09-19T07:44:57;22.50;99.90
10175;DHT22;18221;38.704;0.152;2023-09-19T07:47:27;22.50;99.90
10175;DHT22;18221;38.704;0.152;2023-09-19T07:49:56;22.50;99.90
10175;DHT22;18221;38.704;0.152;2023-09-19T07:52:24;22.50;99.90
10175;DHT22;18221;38.704;0.152;2023-09-19T07:54:53;22.50;99.90
10175;DHT22;18221;38.704;0.152;2023-09-19T07:57:23;23.70;99.90
10175;DHT22;18221;38.704;0.152;2023-09-19T07:59:51;22.60;99.90
10175;DHT22;18221;38.704;0.152;2023-09-19T08:02:19;22.60;99.90
10175;DHT22;18221;38.704;0.152;2023-09-19T08:04:50;22.60;99.90
10175;DHT22;18221;38.704;0.152;2023-09-19T08:07:18;22.60;99.90
10175;DHT22;18221;38.704;0.152;2023-09-19T08:09:46;22.70;99.90
10175;DHT22;18221;38.704;0.152;2023-09-19T08:12:14;22.70;99.90
10175;DHT22;18221;38.704;0.152;2023-09-19T08:14:42;22.70;99.90
10175;DHT22;18221;38.704;0.152;2023-09-19T08:17:10;22.70;99.90
10175;DHT22;18221;38.704;0.152;2023-09-19T08:19:38;23.80;99.90
10175;DHT22;18221;38.704;0.152;2023-09-19T08:22:10;22.60;99.90
10175;DHT22;18221;38.704;0.152;2023-09-19T08:24:38;22.50;99.90
10175;DHT22;18221;38.704;0.152;2023-09-19T08:27:09;22.50;99.90
10175;DHT22;18221;38.704;0.152;2023-09-19T08:29:38;22.50;99.90
10175;DHT22;18221;38.704;0.152;2023-09-19T08:32:06;22.50;99.90
10175;DHT22;18221;38.704;0.152;2023-09-19T08:34:34;22.40;99.90
10175;DHT22;18221;38.704;0.152;2023-09-19T08:37:04;22.40;99.90
10175;DHT22;18221;38.704;0.152;2023-09-19T08:39:35;22.40;99.90
10175;DHT22;18221;38.704;0.152;2023-09-19T08:42:04;22.30;99.90
10175;DHT22;18221;38.704;0.152;2023-09-19T08:44:36;22.30;99.90
10175;DHT22;18221;38.704;0.152;2023-09-19T08:47:09;22.40;99.90
10175;DHT22;18221;38.704;0.152;2023-09-19T08:49:44;22.50;99.90
10175;DHT22;18221;38.704;0.152;2023-09-19T08:52:25;22.60;99.90
10175;DHT22;18221;38.704;0.152;2023-09-19T08:55:02;22.70;99.90
10175;DHT22;18221;38.704;0.152;2023-09-19T08:57:36;22.80;99.90
10175;DHT22;18221;38.704;0.152;2023-09-19T09:00:08;22.80;99.90
10175;DHT22;18221;38.704;0.152;2023-09-19T09:02:40;22.80;99.90
10175;DHT22;18221;38.704;0.152;2023-09-19T09:05:11;22.80;99.90
10175;DHT22;18221;38.704;0.152;2023-09-19T09:07:40;22.80;99.90
10175;DHT22;18221;38.704;0.152;2023-09-19T09:10:11;22.80;99.90
10175;DHT22;18221;38.704;0.152;2023-09-19T09:12:39;22.80;99.90
10175;DHT22;18221;38.704;0.152;2023-09-19T09:15:10;22.80;99.90
10175;DHT22;18221;38.704;0.152;2023-09-19T09:17:42;22.80;99.90
10175;DHT22;18221;38.704;0.152;2023-09-19T09:20:11;22.90;99.90
10175;DHT22;18221;38.704;0.152;2023-09-19T09:22:41;23.00;99.90
10175;DHT22;18221;38.704;0.152;2023-09-19T09:25:19;23.00;99.90
10175;DHT22;18221;38.704;0.152;2023-09-19T09:27:59;23.00;99.90
10175;DHT22;18221;38.704;0.152;2023-09-19T09:30:35;23.10;99.90
10175;DHT22;18221;38.704;0.152;2023-09-19T09:33:11;23.10;99.90
10175;DHT22;18221;38.704;0.152;2023-09-19T09:35:51;23.10;99.90
10175;DHT22;18221;38.704;0.152;2023-09-19T09:38:24;23.10;99.90
10175;DHT22;18221;38.704;0.152;2023-09-19T09:40:55;23.10;99.90
10175;DHT22;18221;38.704;0.152;2023-09-19T09:43:33;23.10;99.90
10175;DHT22;18221;38.704;0.152;2023-09-19T09:46:20;23.20;99.90
10175;DHT22;18221;38.704;0.152;2023-09-19T09:49:06;23.20;99.90
10175;DHT22;18221;38.704;0.152;2023-09-19T09:52:00;23.20;99.90
10175;DHT22;18221;38.704;0.152;2023-09-19T09:54:32;23.20;99.90
10175;DHT22;18221;38.704;0.152;2023-09-19T09:57:05;23.10;99.90
10175;DHT22;18221;38.704;0.152;2023-09-19T09:59:50;23.10;99.90
10175;DHT22;18221;38.704;0.152;2023-09-19T10:02:20;23.10;99.90
10175;DHT22;18221;38.704;0.152;2023-09-19T10:04:55;23.10;99.90
10175;DHT22;18221;38.704;0.152;2023-09-19T10:07:40;23.00;99.90
10175;DHT22;18221;38.704;0.152;2023-09-19T10:10:08;23.00;99.90
10175;DHT22;18221;38.704;0.152;2023-09-19T10:12:47;23.00;99.90
10175;DHT22;18221;38.704;0.152;2023-09-19T10:15:18;22.90;99.90
10175;DHT22;18221;38.704;0.152;2023-09-19T10:17:47;23.00;99.90
10175;DHT22;18221;38.704;0.152;2023-09-19T10:20:16;22.90;99.90
10175;DHT22;18221;38.704;0.152;2023-09-19T10:23:00;22.80;99.90
10175;DHT22;18221;38.704;0.152;2023-09-19T10:25:28;22.80;99.90
10175;DHT22;18221;38.704;0.152;2023-09-19T10:28:00;22.80;99.90
10175;DHT22;18221;38.704;0.152;2023-09-19T10:30:30;22.70;99.90
10175;DHT22;18221;38.704;0.152;2023-09-19T10:33:04;22.60;99.90
10175;DHT22;18221;38.704;0.152;2023-09-19T10:35:33;22.40;99.90
10175;DHT22;18221;38.704;0.152;2023-09-19T10:38:06;22.00;99.90
10175;DHT22;18221;38.704;0.152;2023-09-19T10:40:37;21.60;99.90
10175;DHT22;18221;38.704;0.152;2023-09-19T10:43:16;21.20;99.90
10175;DHT22;18221;38.704;0.152;2023-09-19T10:45:45;20.90;99.90
10175;DHT22;18221;38.704;0.152;2023-09-19T10:48:16;20.70;99.90
10175;DHT22;18221;38.704;0.152;2023-09-19T10:50:50;20.50;99.90
10175;DHT22;18221;38.704;0.152;2023-09-19T10:53:21;20.30;99.90
10175;DHT22;18221;38.704;0.152;2023-09-19T10:55:54;20.20;99.90
10175;DHT22;18221;38.704;0.152;2023-09-19T10:58:28;20.10;99.90
10175;DHT22;18221;38.704;0.152;2023-09-19T11:01:01;20.10;99.90
10175;DHT22;18221;38.704;0.152;2023-09-19T11:03:33;20.00;99.90
10175;DHT22;18221;38.704;0.152;2023-09-19T11:06:08;19.90;99.90
10175;DHT22;18221;38.704;0.152;2023-09-19T11:09:09;19.90;99.90
10175;DHT22;18221;38.704;0.152;2023-09-19T11:11:49;19.90;99.90
10175;DHT22;18221;38.704;0.152;2023-09-19T11:14:37;20.00;99.90
10175;DHT22;18221;38.704;0.152;2023-09-19T11:17:40;20.00;99.90
10175;DHT22;18221;38.704;0.152;2023-09-19T11:20:21;20.00;99.90
10175;DHT22;18221;38.704;0.152;2023-09-19T11:23:25;20.20;99.90
10175;DHT22;18221;38.704;0.152;2023-09-19T11:25:54;20.30;99.90
10175;DHT22;18221;38.704;0.152;2023-09-19T11:28:29;20.40;99.90
10175;DHT22;18221;38.704;0.152;2023-09-19T11:34:44;20.60;99.90
10175;DHT22;18221;38.704;0.152;2023-09-19T11:40:45;20.90;99.90
10175;DHT22;18221;38.704;0.152;2023-09-19T11:43:35;21.20;99.90
10175;DHT22;18221;38.704;0.152;2023-09-19T11:46:09;21.50;99.90
10175;DHT22;18221;38.704;0.152;2023-09-19T11:48:41;21.60;99.90
10175;DHT22;18221;38.704;0.152;2023-09-19T11:51:18;21.80;99.90
10175;DHT22;18221;38.704;0.152;2023-09-19T11:53:49;21.90;99.90
10175;DHT22;18221;38.704;0.152;2023-09-19T11:56:19;21.90;99.90
10175;DHT22;18221;38.704;0.152;2023-09-19T11:58:50;22.00;99.90
10175;DHT22;18221;38.704;0.152;2023-09-19T12:01:23;22.00;99.90
10175;DHT22;18221;38.704;0.152;2023-09-19T12:03:57;22.10;99.90
10175;DHT22;18221;38.704;0.152;2023-09-19T12:06:27;22.20;99.90
10175;DHT22;18221;38.704;0.152;2023-09-19T12:08:58;22.30;99.90
10175;DHT22;18221;38.704;0.152;2023-09-19T12:11:29;22.40;99.90
10175;DHT22;18221;38.704;0.152;2023-09-19T12:13:59;22.50;99.90
10175;DHT22;18221;38.704;0.152;2023-09-19T12:16:28;22.70;99.90
10175;DHT22;18221;38.704;0.152;2023-09-19T12:18:58;22.80;99.90
10175;DHT22;18221;38.704;0.152;2023-09-19T12:21:55;22.80;99.90
10175;DHT22;18221;38.704;0.152;2023-09-19T12:24:30;22.90;99.90
10175;DHT22;18221;38.704;0.152;2023-09-19T12:27:02;23.00;99.90
10175;DHT22;18221;38.704;0.152;2023-09-19T12:29:43;23.00;99.90
10175;DHT22;18221;38.704;0.152;2023-09-19T12:32:11;22.40;99.90
10175;DHT22;18221;38.704;0.152;2023-09-19T12:34:50;23.10;99.90
10175;DHT22;18221;38.704;0.152;2023-09-19T12:37:20;23.20;99.90
10175;DHT22;18221;38.704;0.152;2023-09-19T12:39:49;23.20;99.90
10175;DHT22;18221;38.704;0.152;2023-09-19T12:42:22;23.20;99.90
10175;DHT22;18221;38.704;0.152;2023-09-19T12:44:54;23.30;99.90
10175;DHT22;18221;38.704;0.152;2023-09-19T12:47:24;23.30;99.90
10175;DHT22;18221;38.704;0.152;2023-09-19T12:50:10;23.40;99.90
10175;DHT22;18221;38.704;0.152;2023-09-19T12:52:44;23.50;99.90
10175;DHT22;18221;38.704;0.152;2023-09-19T12:55:24;23.60;99.90
10175;DHT22;18221;38.704;0.152;2023-09-19T12:58:02;23.60;99.90
10175;DHT22;18221;38.704;0.152;2023-09-19T13:00:36;23.70;99.90
10175;DHT22;18221;38.704;0.152;2023-09-19T13:03:16;23.70;99.90
10175;DHT22;18221;38.704;0.152;2023-09-19T13:05:56;23.70;99.90
10175;DHT22;18221;38.704;0.152;2023-09-19T13:08:29;23.70;99.90
10175;DHT22;18221;38.704;0.152;2023-09-19T13:11:11;23.70;99.90
10175;DHT22;18221;38.704;0.152;2023-09-19T13:13:45;23.70;99.90
10175;DHT22;18221;38.704;0.152;2023-09-19T13:16:15;23.70;99.90
10175;DHT22;18221;38.704;0.152;2023-09-19T13:18:48;23.70;99.90
10175;DHT22;18221;38.704;0.152;2023-09-19T13:21:30;23.60;99.90
10175;DHT22;18221;38.704;0.152;2023-09-19T13:24:20;23.50;99.90
10175;DHT22;18221;38.704;0.152;2023-09-19T13:26:51;23.50;99.90
10175;DHT22;18221;38.704;0.152;2023-09-19T13:29:20;23.50;99.90
10175;DHT22;18221;38.704;0.152;2023-09-19T13:31:48;23.50;99.90
10175;DHT22;18221;38.704;0.152;2023-09-19T13:34:17;23.50;99.90
10175;DHT22;18221;38.704;0.152;2023-09-19T13:36:46;23.60;99.90
10175;DHT22;18221;38.704;0.152;2023-09-19T13:39:15;23.70;99.90
10175;DHT22;18221;38.704;0.152;2023-09-19T13:41:44;23.70;99.90
10175;DHT22;18221;38.704;0.152;2023-09-19T13:44:20;23.80;99.90
10175;DHT22;18221;38.704;0.152;2023-09-19T13:46:49;23.80;99.90
10175;DHT22;18221;38.704;0.152;2023-09-19T13:49:17;23.90;99.90
10175;DHT22;18221;38.704;0.152;2023-09-19T13:51:47;24.00;99.90
10175;DHT22;18221;38.704;0.152;2023-09-19T13:54:15;24.00;99.90
10175;DHT22;18221;38.704;0.152;2023-09-19T13:56:43;24.00;99.90
10175;DHT22;18221;38.704;0.152;2023-09-19T13:59:11;24.00;99.90
10175;DHT22;18221;38.704;0.152;2023-09-19T14:01:39;24.10;99.90
10175;DHT22;18221;38.704;0.152;2023-09-19T14:04:07;24.10;99.90
10175;DHT22;18221;38.704;0.152;2023-09-19T14:06:36;24.10;99.90
10175;DHT22;18221;38.704;0.152;2023-09-19T14:09:06;24.10;99.90
10175;DHT22;18221;38.704;0.152;2023-09-19T14:11:34;23.90;99.90
10175;DHT22;18221;38.704;0.152;2023-09-19T14:14:02;23.90;99.90
10175;DHT22;18221;38.704;0.152;2023-09-19T14:16:30;23.80;99.90
10175;DHT22;18221;38.704;0.152;2023-09-19T14:18:58;23.70;99.90
10175;DHT22;18221;38.704;0.152;2023-09-19T14:21:26;23.60;99.90
10175;DHT22;18221;38.704;0.152;2023-09-19T14:23:54;23.60;99.90
10175;DHT22;18221;38.704;0.152;2023-09-19T14:26:24;23.40;99.90
10175;DHT22;18221;38.704;0.152;2023-09-19T14:28:53;23.30;99.90
10175;DHT22;18221;38.704;0.152;2023-09-19T14:31:21;23.20;99.90
10175;DHT22;18221;38.704;0.152;2023-09-19T14:33:54;23.10;99.90
10175;DHT22;18221;38.704;0.152;2023-09-19T14:36:24;23.00;99.90
10175;DHT22;18221;38.704;0.152;2023-09-19T14:38:56;23.00;99.90
10175;DHT22;18221;38.704;0.152;2023-09-19T14:41:26;22.90;99.90
10175;DHT22;18221;38.704;0.152;2023-09-19T14:43:55;22.90;99.90
10175;DHT22;18221;38.704;0.152;2023-09-19T14:46:23;22.80;99.90
10175;DHT22;18221;38.704;0.152;2023-09-19T14:48:51;22.70;99.90
10175;DHT22;18221;38.704;0.152;2023-09-19T14:51:19;22.70;99.90
10175;DHT22;18221;38.704;0.152;2023-09-19T14:53:48;22.60;99.90
10175;DHT22;18221;38.704;0.152;2023-09-19T14:56:16;22.70;99.90
10175;DHT22;18221;38.704;0.152;2023-09-19T14:58:47;22.70;99.90
10175;DHT22;18221;38.704;0.152;2023-09-19T15:01:15;22.70;99.90
10175;DHT22;18221;38.704;0.152;2023-09-19T15:03:43;22.80;99.90
10175;DHT22;18221;38.704;0.152;2023-09-19T15:06:12;23.10;99.90
10175;DHT22;18221;38.704;0.152;2023-09-19T15:08:44;22.40;99.90
10175;DHT22;18221;38.704;0.152;2023-09-19T15:11:13;23.20;99.90
10175;DHT22;18221;38.704;0.152;2023-09-19T15:13:43;23.20;99.90
10175;DHT22;18221;38.704;0.152;2023-09-19T15:16:13;23.30;99.90
10175;DHT22;18221;38.704;0.152;2023-09-19T15:18:42;23.40;99.90
10175;DHT22;18221;38.704;0.152;2023-09-19T15:21:13;23.40;99.90
10175;DHT22;18221;38.704;0.152;2023-09-19T15:23:43;23.50;99.90
10175;DHT22;18221;38.704;0.152;2023-09-19T15:26:13;23.60;99.90
10175;DHT22;18221;38.704;0.152;2023-09-19T15:28:46;23.70;99.90
10175;DHT22;18221;38.704;0.152;2023-09-19T15:31:16;23.60;99.90
10175;DHT22;18221;38.704;0.152;2023-09-19T15:33:44;23.50;99.90
10175;DHT22;18221;38.704;0.152;2023-09-19T15:36:14;23.40;99.90
10175;DHT22;18221;38.704;0.152;2023-09-19T15:38:58;23.30;99.90
10175;DHT22;18221;38.704;0.152;2023-09-19T15:41:28;23.20;99.90
10175;DHT22;18221;38.704;0.152;2023-09-19T15:43:58;23.20;99.90
10175;DHT22;18221;38.704;0.152;2023-09-19T15:46:29;23.10;99.90
10175;DHT22;18221;38.704;0.152;2023-09-19T15:48:59;23.00;99.90
10175;DHT22;18221;38.704;0.152;2023-09-19T15:51:27;23.00;99.90
10175;DHT22;18221;38.704;0.152;2023-09-19T15:53:56;23.00;99.90
10175;DHT22;18221;38.704;0.152;2023-09-19T15:56:26;23.00;99.90
10175;DHT22;18221;38.704;0.152;2023-09-19T15:58:55;23.00;99.90
10175;DHT22;18221;38.704;0.152;2023-09-19T16:01:24;23.00;99.90
10175;DHT22;18221;38.704;0.152;2023-09-19T16:03:54;22.90;99.90
10175;DHT22;18221;38.704;0.152;2023-09-19T16:06:23;23.00;99.90
10175;DHT22;18221;38.704;0.152;2023-09-19T16:08:53;22.90;99.90
10175;DHT22;18221;38.704;0.152;2023-09-19T16:11:25;22.90;99.90
10175;DHT22;18221;38.704;0.152;2023-09-19T16:13:54;22.90;99.90
10175;DHT22;18221;38.704;0.152;2023-09-19T16:16:25;22.90;99.90
10175;DHT22;18221;38.704;0.152;2023-09-19T16:18:58;22.90;99.90
10175;DHT22;18221;38.704;0.152;2023-09-19T16:21:30;22.90;99.90